Phillipsville, California
Current Conditions -  °F | °C
As of 6:55 AM on Thursday 30 Oct 2014 (Local Time) from KFOT Reporting Station
Overcast Overcast  
Wind Chill: 55°   Ceiling: 200
Heat Index: 55°   Visibility: 0.5mi
Dew Point: 55°   Wind: 5mph
Humidity: 100%   Direction: 140°SE
Pressure: 29.93"   Gusts: NA
Location:  40.21°N, 123.78°W
Report Text: KFOT 301355Z AUTO 14004KT 1/2SM OVC002 13/13 A2993 RMK AO1
Loading
Personal Weather Stations






























Interactive Weather Map
Tropical Storm Tracking
New forecast layout! Learn more

10-Day Weather Forecast

Advertisements
Track Severe Weather on mobile